Time;durP1;ratioP1;P1;durP2;ratioP2;P2;SDS_P1;SDS_P2;PMS_P1;PMS_P2;Temp;Humidity;BMP_temperature;BMP_pressure;BME280_temperature;BME280_humidity;BME280_pressure;Samples;Min_cycle;Max_cycle;Signal;HPM_P1;HPM_P2
2023/10/01 00:00:09;;;;;;;6.18;5.00;;;19.70;62.40;21.40;102228.00;;;;4947401;28;20195;-82
2023/10/01 00:02:38;;;;;;;7.65;4.95;;;19.70;62.50;21.40;102228.00;;;;4948379;28;20286;-81
2023/10/01 00:05:06;;;;;;;10.05;5.05;;;19.70;62.50;21.40;102224.00;;;;4948446;29;20207;-82
2023/10/01 00:07:37;;;;;;;9.25;5.00;;;19.70;62.60;21.40;102216.00;;;;4960207;28;20627;-82
2023/10/01 00:10:10;;;;;;;7.15;5.03;;;19.70;62.60;21.40;102218.00;;;;4941891;28;20761;-82
2023/10/01 00:12:39;;;;;;;9.02;5.47;;;19.70;62.70;21.40;102213.00;;;;4946570;28;20298;-81
2023/10/01 00:15:12;;;;;;;6.75;5.18;;;19.70;62.70;21.40;102210.00;;;;4947774;28;20219;-81
2023/10/01 00:17:40;;;;;;;6.22;4.53;;;19.70;62.80;21.40;102227.00;;;;4948258;28;20278;-81
2023/10/01 00:20:16;;;;;;;7.63;4.65;;;19.70;62.80;21.40;102222.00;;;;4946938;28;20667;-80
2023/10/01 00:22:44;;;;;;;6.68;5.20;;;19.70;62.80;21.40;102218.00;;;;4946889;28;20249;-81
2023/10/01 00:25:15;;;;;;;7.00;4.72;;;19.70;62.80;21.40;102216.00;;;;4950854;28;20203;-81
2023/10/01 00:27:42;;;;;;;6.65;5.05;;;19.60;62.70;21.40;102213.00;;;;4947426;28;20223;-82
2023/10/01 00:30:11;;;;;;;6.93;5.35;;;19.70;62.70;21.40;102213.00;;;;4944924;28;20222;-82
2023/10/01 00:32:39;;;;;;;7.72;4.85;;;19.60;62.70;21.40;102210.00;;;;4946772;28;20207;-82
2023/10/01 00:35:10;;;;;;;6.60;4.80;;;19.60;62.70;21.40;102202.00;;;;4946968;28;20712;-81
2023/10/01 00:37:39;;;;;;;6.25;4.57;;;19.70;62.70;21.30;102206.00;;;;4946769;28;20669;-82
2023/10/01 00:40:08;;;;;;;7.57;5.30;;;19.60;62.70;21.30;102194.00;;;;4945507;28;20223;-81
2023/10/01 00:42:38;;;;;;;6.32;4.70;;;19.60;62.70;21.30;102193.00;;;;4948559;28;20699;-82
2023/10/01 00:45:08;;;;;;;8.80;5.10;;;19.60;62.70;21.30;102191.00;;;;4947022;28;20210;-82
2023/10/01 00:47:39;;;;;;;7.80;5.15;;;19.60;62.70;21.30;102195.00;;;;4946556;28;20199;-82
2023/10/01 00:50:12;;;;;;;7.70;4.78;;;19.60;62.80;21.30;102186.00;;;;4945069;28;20237;-81
2023/10/01 00:52:41;;;;;;;5.85;4.57;;;19.50;62.70;21.30;102192.00;;;;4946050;28;20203;-81
2023/10/01 00:55:11;;;;;;;5.65;4.88;;;19.60;62.80;21.30;102191.00;;;;4947336;28;20302;-81
2023/10/01 00:57:41;;;;;;;6.32;5.28;;;19.50;62.80;21.20;102194.00;;;;4944490;28;20203;-82
2023/10/01 01:00:14;;;;;;;10.32;5.13;;;19.50;62.80;21.20;102189.00;;;;4945094;28;20674;-82
2023/10/01 01:02:47;;;;;;;6.20;4.78;;;19.50;62.80;21.20;102184.00;;;;4946598;28;20290;-82
2023/10/01 01:05:34;;;;;;;6.75;4.68;;;19.50;62.80;21.20;102186.00;;;;4946566;28;20257;-81
2023/10/01 01:08:08;;;;;;;8.07;4.75;;;19.50;63.40;21.10;102184.00;;;;4945968;28;20264;-81
2023/10/01 01:10:41;;;;;;;6.28;4.20;;;19.50;62.70;21.10;102191.00;;;;4945538;28;20671;-81
2023/10/01 01:13:16;;;;;;;5.88;4.32;;;19.50;62.80;21.20;102189.00;;;;4945857;28;20657;-81
2023/10/01 01:15:45;;;;;;;8.60;4.05;;;19.50;62.60;21.20;102185.00;;;;4958573;28;20267;-81
2023/10/01 01:18:14;;;;;;;6.32;3.88;;;19.50;62.50;21.10;102178.00;;;;4945238;28;20203;-81
2023/10/01 01:20:45;;;;;;;5.72;4.15;;;19.40;62.50;21.10;102178.00;;;;4945975;28;20207;-81
2023/10/01 01:23:18;;;;;;;5.78;4.00;;;19.40;62.50;21.10;102175.00;;;;4949691;28;20253;-81
2023/10/01 01:25:46;;;;;;;5.50;4.05;;;19.40;62.60;21.10;102169.00;;;;4946537;28;20195;-82
2023/10/01 01:28:15;;;;;;;5.38;3.67;;;19.40;62.50;21.10;102170.00;;;;4956309;28;20789;-81
2023/10/01 01:30:46;;;;;;;7.43;4.25;;;19.50;62.60;21.20;102172.00;;;;4949875;28;20210;-81
2023/10/01 01:33:16;;;;;;;4.57;3.38;;;19.50;62.70;21.20;102167.00;;;;4952192;28;20218;-82
2023/10/01 01:35:49;;;;;;;4.45;3.17;;;19.50;62.70;21.20;102161.00;;;;4948345;28;20763;-81
2023/10/01 01:38:17;;;;;;;4.30;3.65;;;19.50;62.70;21.20;102160.00;;;;4949459;28;20234;-81
2023/10/01 01:40:47;;;;;;;8.38;4.05;;;19.50;62.60;21.20;102163.00;;;;4948249;29;20230;-81
2023/10/01 01:43:22;;;;;;;6.65;3.90;;;19.50;62.50;21.20;102164.00;;;;4949922;28;20207;-81
2023/10/01 01:45:54;;;;;;;7.07;3.70;;;19.50;62.50;21.20;102152.00;;;;4949984;28;20210;-81
2023/10/01 01:48:31;;;;;;;6.65;3.63;;;19.50;62.50;21.20;102159.00;;;;4948217;28;20207;-81
2023/10/01 01:51:00;;;;;;;6.60;4.10;;;19.50;62.40;21.20;102149.00;;;;4952950;28;20210;-81
2023/10/01 01:53:34;;;;;;;7.43;3.65;;;19.50;62.20;21.10;102145.00;;;;4950000;28;20199;-81
2023/10/01 01:56:05;;;;;;;4.88;3.38;;;19.50;62.00;21.10;102151.00;;;;4950418;28;20206;-81
2023/10/01 01:58:35;;;;;;;5.97;3.80;;;19.50;61.90;21.10;102151.00;;;;4949233;29;20198;-82
2023/10/01 02:01:17;;;;;;;6.28;3.60;;;19.50;61.90;21.10;102146.00;;;;4950120;28;20205;-81
2023/10/01 02:03:50;;;;;;;4.28;3.10;;;19.50;61.90;21.10;102155.00;;;;4949566;28;20198;-81
2023/10/01 02:06:26;;;;;;;9.32;3.05;;;19.50;61.90;21.10;102159.00;;;;4962911;28;20258;-81
2023/10/01 02:08:57;;;;;;;5.43;3.47;;;19.50;61.90;21.10;102147.00;;;;4948893;28;20579;-82
2023/10/01 02:11:25;;;;;;;10.45;3.67;;;19.50;62.00;21.10;102155.00;;;;4950045;28;20202;-81
2023/10/01 02:13:54;;;;;;;6.18;3.60;;;19.50;62.00;21.10;102152.00;;;;4949695;28;20195;-81
2023/10/01 02:16:35;;;;;;;4.85;3.38;;;19.50;61.90;21.10;102149.00;;;;4949754;28;20199;-81
2023/10/01 02:19:18;;;;;;;7.45;3.58;;;19.50;61.90;21.10;102149.00;;;;4948845;28;20215;-81
2023/10/01 02:21:49;;;;;;;8.07;3.70;;;19.50;61.80;21.10;102142.00;;;;4949228;28;20665;-82
2023/10/01 02:24:23;;;;;;;4.50;2.90;;;19.50;61.80;21.10;102140.00;;;;4951734;28;20541;-81
2023/10/01 02:26:59;;;;;;;5.03;3.28;;;19.50;61.80;21.10;102139.00;;;;4949779;28;20305;-82
2023/10/01 02:29:31;;;;;;;5.10;3.35;;;19.50;61.70;21.10;102130.00;;;;4946553;28;20198;-82
2023/10/01 02:31:58;;;;;;;5.82;3.83;;;19.50;61.80;21.10;102128.00;;;;4948889;28;20264;-82
2023/10/01 02:34:31;;;;;;;5.70;3.30;;;19.50;61.80;21.10;102141.00;;;;4942695;29;20304;-82
2023/10/01 02:37:03;;;;;;;7.15;3.90;;;19.50;61.70;21.10;102139.00;;;;4948105;29;20213;-81
2023/10/01 02:39:31;;;;;;;4.78;2.80;;;19.50;61.60;21.10;102133.00;;;;4948167;28;20235;-81
2023/10/01 02:42:09;;;;;;;6.72;3.75;;;19.50;61.70;21.10;102142.00;;;;4951255;28;20218;-82
2023/10/01 02:44:47;;;;;;;7.43;3.20;;;19.50;61.70;21.10;102140.00;;;;4949200;28;20203;-82
2023/10/01 02:47:16;;;;;;;5.90;3.17;;;19.50;61.80;21.10;102137.00;;;;4944665;28;20707;-81
2023/10/01 02:49:51;;;;;;;6.10;3.20;;;19.50;61.80;21.20;102139.00;;;;4949698;28;20207;-81
2023/10/01 02:52:21;;;;;;;6.47;3.38;;;19.50;61.90;21.10;102139.00;;;;4950345;28;20626;-81
2023/10/01 02:54:54;;;;;;;5.43;3.17;;;19.50;62.00;21.10;102132.00;;;;4950083;29;20241;-82
2023/10/01 02:57:27;;;;;;;5.97;3.15;;;19.50;62.00;21.20;102139.00;;;;4950299;28;20296;-81
2023/10/01 03:02:50;;;;;;;6.07;3.35;;;19.50;61.90;21.10;102132.00;;;;4940558;28;20307;-81
2023/10/01 03:05:19;;;;;;;5.82;3.13;;;19.50;61.90;21.20;102135.00;;;;4949235;28;20207;-82
2023/10/01 03:07:50;;;;;;;6.22;3.03;;;19.50;61.90;21.20;102137.00;;;;4947963;28;20210;-81
2023/10/01 03:10:25;;;;;;;4.43;3.10;;;19.50;61.70;21.10;102119.00;;;;4948466;29;20258;-81
2023/10/01 03:12:53;;;;;;;8.70;3.78;;;19.50;61.90;21.20;102131.00;;;;4948954;28;21184;-81
2023/10/01 03:15:24;;;;;;;5.72;3.67;;;19.50;61.80;21.20;102117.00;;;;4961982;28;20262;-81
2023/10/01 03:18:06;;;;;;;5.82;3.35;;;19.50;61.70;21.20;102119.00;;;;4946567;28;20735;-81
2023/10/01 03:23:26;;;;;;;6.68;3.50;;;19.50;61.60;21.10;102116.00;;;;4948961;29;20198;-81
2023/10/01 03:25:59;;;;;;;8.15;3.70;;;19.50;61.50;21.10;102112.00;;;;4947472;28;20753;-81
2023/10/01 03:28:33;;;;;;;6.18;3.15;;;19.50;61.40;21.10;102111.00;;;;4947241;28;20229;-82
2023/10/01 03:31:08;;;;;;;7.57;2.90;;;19.50;61.40;21.10;102107.00;;;;4957859;28;20286;-82
2023/10/01 03:33:37;;;;;;;6.20;3.45;;;19.50;61.50;21.10;102103.00;;;;4930285;28;20246;-81
2023/10/01 03:36:09;;;;;;;8.70;3.75;;;19.50;62.10;21.10;102111.00;;;;4947331;28;20239;-81
2023/10/01 03:38:37;;;;;;;6.38;3.75;;;19.50;61.40;21.10;102115.00;;;;4946973;28;20655;-81
2023/10/01 03:41:08;;;;;;;5.72;3.38;;;19.50;61.40;21.10;102105.00;;;;4945574;28;20640;-81
2023/10/01 03:43:37;;;;;;;6.63;3.22;;;19.50;61.40;21.10;102104.00;;;;4947013;28;20202;-82
2023/10/01 03:46:13;;;;;;;5.47;3.47;;;19.50;61.50;21.10;102102.00;;;;4947348;28;20268;-81
2023/10/01 03:49:00;;;;;;;5.68;2.90;;;19.50;61.50;21.10;102104.00;;;;4950857;28;20199;-81
2023/10/01 03:54:19;;;;;;;8.05;3.35;;;19.50;61.30;21.10;102106.00;;;;4946331;28;20683;-81
2023/10/01 03:56:56;;;;;;;6.10;3.15;;;19.50;61.20;21.10;102108.00;;;;4945712;28;20286;-81
2023/10/01 03:59:27;;;;;;;4.88;3.13;;;19.50;61.20;21.10;102103.00;;;;4947796;28;20468;-82
2023/10/01 04:02:02;;;;;;;7.28;2.83;;;19.50;61.20;21.10;102101.00;;;;4941932;28;20207;-81
2023/10/01 04:04:32;;;;;;;6.63;3.72;;;19.50;61.20;21.10;102103.00;;;;4943166;28;20198;-81
2023/10/01 04:07:09;;;;;;;7.80;3.53;;;19.50;61.20;21.10;102104.00;;;;4950999;28;20658;-82
2023/10/01 04:09:46;;;;;;;7.75;3.20;;;19.40;61.20;21.10;102102.00;;;;4948158;28;20202;-81
2023/10/01 04:12:19;;;;;;;5.20;2.67;;;19.40;61.20;21.00;102102.00;;;;4947227;28;20199;-82
2023/10/01 04:14:48;;;;;;;4.03;2.72;;;19.40;61.20;21.00;102102.00;;;;4939262;28;20219;-81
2023/10/01 04:17:18;;;;;;;5.40;2.92;;;19.50;61.20;21.00;102101.00;;;;4948400;29;20256;-81
2023/10/01 04:19:49;;;;;;;6.72;2.97;;;19.40;61.20;21.00;102099.00;;;;4946437;28;20722;-82
2023/10/01 04:22:17;;;;;;;5.32;2.75;;;19.50;61.20;21.00;102090.00;;;;4959887;28;20257;-81
2023/10/01 04:25:00;;;;;;;8.00;3.00;;;19.40;61.20;21.10;102092.00;;;;4948082;28;20238;-81
2023/10/01 04:27:30;;;;;;;4.68;2.67;;;19.40;61.20;21.00;102086.00;;;;4947271;28;20246;-81
2023/10/01 04:30:00;;;;;;;4.93;2.70;;;19.40;61.20;21.00;102096.00;;;;4944654;28;20282;-81
2023/10/01 04:32:28;;;;;;;7.97;3.08;;;19.40;61.20;21.10;102097.00;;;;4947674;28;20195;-81
2023/10/01 04:34:58;;;;;;;6.22;2.85;;;19.50;61.30;21.00;102089.00;;;;4947881;29;20227;-82
2023/10/01 04:37:37;;;;;;;6.25;2.97;;;19.50;61.30;21.10;102081.00;;;;4946884;28;20673;-81
2023/10/01 04:40:31;;;;;;;8.52;2.75;;;19.50;61.20;21.10;102092.00;;;;4961213;28;20238;-81
2023/10/01 04:42:56;;;;;;;7.57;3.60;;;19.50;61.20;21.00;102096.00;;;;4946665;28;20199;-81
2023/10/01 04:45:23;;;;;;;5.68;2.45;;;19.50;61.20;21.10;102097.00;;;;4947641;28;20202;-81
2023/10/01 04:47:55;;;;;;;3.72;2.22;;;19.50;61.10;21.10;102106.00;;;;4946887;28;20211;-81
2023/10/01 04:50:27;;;;;;;5.53;2.47;;;19.50;61.10;21.00;102099.00;;;;4947199;28;20193;-82
2023/10/01 04:52:59;;;;;;;5.18;2.60;;;19.50;61.00;21.00;102106.00;;;;4946821;29;20199;-82
2023/10/01 04:55:28;;;;;;;5.28;2.65;;;19.50;61.00;21.00;102098.00;;;;4946371;28;20233;-82
2023/10/01 04:57:57;;;;;;;6.53;3.58;;;19.50;61.10;21.00;102103.00;;;;4960591;28;20281;-81
2023/10/01 05:00:24;;;;;;;6.95;2.90;;;19.50;61.10;21.10;102100.00;;;;4947276;28;20203;-82
2023/10/01 05:02:52;;;;;;;7.10;2.95;;;19.50;61.10;21.10;102098.00;;;;4947860;28;20191;-81
2023/10/01 05:05:25;;;;;;;6.22;2.70;;;19.50;61.20;21.10;102100.00;;;;4945881;28;20615;-81
2023/10/01 05:07:57;;;;;;;8.88;2.85;;;19.50;61.20;21.00;102104.00;;;;4947295;28;20199;-81
2023/10/01 05:10:26;;;;;;;5.35;2.92;;;19.50;61.20;21.10;102100.00;;;;4946550;28;20207;-81
2023/10/01 05:12:58;;;;;;;5.18;2.75;;;19.50;61.20;21.10;102102.00;;;;4953423;28;20199;-81
2023/10/01 05:15:31;;;;;;;8.90;3.03;;;19.50;61.30;21.10;102104.00;;;;4946490;28;20284;-81
2023/10/01 05:17:59;;;;;;;5.22;2.70;;;19.50;61.20;21.20;102119.00;;;;4944282;28;20284;-81
2023/10/01 05:20:28;;;;;;;6.13;2.47;;;19.60;61.50;21.20;102116.00;;;;4946804;29;20568;-81
2023/10/01 05:22:59;;;;;;;5.72;2.88;;;19.60;61.50;21.20;102109.00;;;;4941732;28;20281;-81
2023/10/01 05:25:26;;;;;;;4.40;2.63;;;19.60;61.40;21.20;102095.00;;;;4947166;28;20202;-82
2023/10/01 05:27:55;;;;;;;5.13;3.05;;;19.60;61.40;21.20;102118.00;;;;4945128;28;20230;-81
2023/10/01 05:30:39;;;;;;;8.57;3.10;;;19.60;61.50;21.20;102112.00;;;;4950102;28;20199;-80
2023/10/01 05:33:11;;;;;;;7.93;3.00;;;19.60;61.50;21.20;102113.00;;;;4944407;28;20664;-80
2023/10/01 05:35:44;;;;;;;6.45;2.85;;;19.60;61.40;21.20;102115.00;;;;4946612;28;20231;-81
2023/10/01 05:38:14;;;;;;;7.18;2.72;;;19.60;61.40;21.20;102103.00;;;;4945441;28;20203;-81
2023/10/01 05:40:44;;;;;;;6.43;3.55;;;19.60;61.50;21.20;102117.00;;;;4944759;28;20607;-80
2023/10/01 05:43:15;;;;;;;5.80;3.25;;;19.60;61.50;21.20;102111.00;;;;4946663;28;20203;-81
2023/10/01 05:45:44;;;;;;;6.40;3.08;;;19.60;61.50;21.20;102116.00;;;;4945599;28;20211;-81
2023/10/01 05:48:18;;;;;;;6.80;3.10;;;19.70;61.50;21.20;102130.00;;;;4949746;28;20211;-81
2023/10/01 05:50:46;;;;;;;7.05;3.00;;;19.60;61.30;21.30;102127.00;;;;4946857;28;20191;-81
2023/10/01 05:53:14;;;;;;;5.28;3.17;;;19.60;61.30;21.20;102120.00;;;;4945932;28;20565;-81
2023/10/01 05:55:43;;;;;;;7.68;3.22;;;19.60;61.30;21.20;102120.00;;;;4945689;28;20669;-80
2023/10/01 05:58:21;;;;;;;8.00;3.10;;;19.60;61.30;21.20;102122.00;;;;4947685;28;20199;-81
2023/10/01 06:01:05;;;;;;;5.88;2.95;;;19.60;61.30;21.20;102134.00;;;;4947400;28;20214;-80
2023/10/01 06:03:39;;;;;;;7.95;3.63;;;19.70;61.30;21.20;102129.00;;;;4943513;28;20196;-82
2023/10/01 06:06:09;;;;;;;5.22;2.88;;;19.70;61.40;21.20;102136.00;;;;4942639;28;20344;-83
2023/10/01 06:08:49;;;;;;;11.50;3.58;;;19.70;61.40;21.20;102129.00;;;;4947198;28;20257;-83
2023/10/01 06:11:18;;;;;;;7.60;3.15;;;19.70;61.30;21.20;102136.00;;;;4949437;28;20199;-82
2023/10/01 06:13:51;;;;;;;6.93;3.45;;;19.70;61.30;21.20;102133.00;;;;4950520;28;20203;-82
2023/10/01 06:16:23;;;;;;;6.20;3.08;;;19.60;61.20;21.20;102138.00;;;;4952800;28;20222;-81
2023/10/01 06:18:56;;;;;;;4.97;3.03;;;19.70;61.30;21.20;102140.00;;;;4949614;28;20191;-80
2023/10/01 06:21:25;;;;;;;5.65;3.22;;;19.70;61.30;21.20;102128.00;;;;4951208;28;20238;-80
2023/10/01 06:23:54;;;;;;;6.80;3.05;;;19.70;61.40;21.30;102131.00;;;;4936273;28;20191;-82
2023/10/01 06:26:29;;;;;;;8.25;3.65;;;19.70;61.40;21.30;102133.00;;;;4947738;28;20427;-81
2023/10/01 06:28:57;;;;;;;7.28;3.58;;;19.70;61.40;21.30;102135.00;;;;4949737;28;20195;-82
2023/10/01 06:31:27;;;;;;;5.30;2.75;;;19.70;61.30;21.20;102133.00;;;;4946315;28;20261;-82
2023/10/01 06:33:56;;;;;;;7.13;3.03;;;19.70;61.20;21.20;102134.00;;;;4948956;28;20768;-81
2023/10/01 06:36:25;;;;;;;9.48;3.75;;;19.60;61.20;21.20;102134.00;;;;4945429;28;20227;-80
2023/10/01 06:38:54;;;;;;;5.63;3.10;;;19.70;61.40;21.30;102126.00;;;;4951864;28;20691;-81
2023/10/01 06:41:26;;;;;;;9.20;3.90;;;19.60;61.40;21.20;102129.00;;;;4948723;28;20261;-81
2023/10/01 06:44:01;;;;;;;6.78;3.33;;;19.70;61.40;21.30;102136.00;;;;4949131;28;20202;-80
2023/10/01 06:46:28;;;;;;;6.88;3.28;;;19.70;61.30;21.30;102131.00;;;;4949873;28;20737;-80
2023/10/01 06:48:59;;;;;;;9.25;3.95;;;19.70;61.30;21.30;102142.00;;;;4948697;28;20238;-81
2023/10/01 06:51:37;;;;;;;8.98;3.63;;;19.70;61.30;21.30;102133.00;;;;4947443;28;20195;-81
2023/10/01 06:54:06;;;;;;;6.28;3.45;;;19.70;61.40;21.30;102138.00;;;;4948114;28;20214;-80
2023/10/01 06:56:34;;;;;;;7.28;3.55;;;19.70;61.40;21.40;102129.00;;;;4948267;28;20322;-79
2023/10/01 06:59:13;;;;;;;7.60;3.10;;;19.70;61.50;21.40;102131.00;;;;4945550;28;20214;-79
2023/10/01 07:01:49;;;;;;;6.32;3.67;;;19.80;61.70;21.50;102133.00;;;;4945131;28;20207;-79
2023/10/01 07:04:20;;;;;;;7.90;4.05;;;19.80;61.70;21.40;102132.00;;;;4947636;28;20709;-81
2023/10/01 07:06:50;;;;;;;7.65;3.47;;;19.80;61.60;21.50;102137.00;;;;4948258;28;20226;-79
2023/10/01 07:09:28;;;;;;;6.88;4.30;;;19.80;61.50;21.50;102137.00;;;;4949163;28;20196;-79
2023/10/01 07:11:57;;;;;;;6.20;3.30;;;19.90;61.40;21.50;102127.00;;;;4958653;28;20200;-79
2023/10/01 07:14:43;;;;;;;9.73;4.10;;;19.90;61.40;21.50;102138.00;;;;4972674;28;20230;-79
2023/10/01 07:17:14;;;;;;;7.60;3.25;;;19.90;61.30;21.50;102132.00;;;;4945492;28;20936;-81
2023/10/01 07:19:42;;;;;;;6.25;3.45;;;19.90;61.30;21.50;102133.00;;;;4945307;28;20553;-80
2023/10/01 07:22:11;;;;;;;6.40;3.72;;;20.00;61.50;21.60;102129.00;;;;4947927;29;20215;-79
2023/10/01 07:24:38;;;;;;;11.57;4.30;;;20.00;61.40;21.60;102130.00;;;;4954402;28;20253;-79
2023/10/01 07:27:06;;;;;;;6.28;3.85;;;20.00;61.40;21.60;102129.00;;;;4946047;28;20219;-79
2023/10/01 07:29:35;;;;;;;6.22;4.13;;;20.00;61.40;21.70;102127.00;;;;4950828;28;20210;-78
2023/10/01 07:32:07;;;;;;;7.05;4.25;;;20.10;61.40;21.70;102127.00;;;;4945385;28;20207;-77
2023/10/01 07:34:35;;;;;;;9.18;4.55;;;20.10;61.40;21.70;102125.00;;;;4946969;29;20213;-78
2023/10/01 07:37:05;;;;;;;7.80;3.92;;;20.10;61.30;21.70;102133.00;;;;4947630;28;20998;-78
2023/10/01 07:39:36;;;;;;;9.82;4.20;;;20.10;61.30;21.80;102130.00;;;;4945350;28;20316;-77
2023/10/01 07:42:04;;;;;;;7.55;4.20;;;20.20;61.50;21.80;102143.00;;;;4948362;28;20285;-78
2023/10/01 07:44:34;;;;;;;8.85;4.07;;;20.20;61.40;21.90;102146.00;;;;4946083;28;20296;-77
2023/10/01 07:47:03;;;;;;;7.68;4.15;;;20.30;61.50;21.90;102151.00;;;;5005739;28;20212;-78
2023/10/01 07:49:46;;;;;;;8.52;4.47;;;20.30;61.40;22.00;102152.00;;;;5002798;28;20195;-78
2023/10/01 07:52:18;;;;;;;9.57;4.25;;;20.40;61.50;22.00;102159.00;;;;4943442;28;20204;-77
2023/10/01 07:54:48;;;;;;;7.25;3.60;;;20.40;61.40;22.10;102158.00;;;;4946659;28;20277;-77
2023/10/01 07:57:17;;;;;;;7.22;3.60;;;20.40;61.50;22.10;102163.00;;;;4947086;28;20215;-78
2023/10/01 07:59:46;;;;;;;8.77;4.78;;;20.50;61.50;22.20;102158.00;;;;4946434;28;20242;-77
2023/10/01 08:02:27;;;;;;;8.23;4.05;;;20.50;61.40;22.20;102160.00;;;;4945887;28;20286;-77
2023/10/01 08:04:58;;;;;;;9.05;4.57;;;20.60;61.40;22.20;102158.00;;;;4950772;28;20286;-77
2023/10/01 08:07:39;;;;;;;7.18;4.25;;;20.70;61.30;22.30;102151.00;;;;4947839;28;20209;-78
2023/10/01 08:10:16;;;;;;;7.35;3.80;;;20.70;61.30;22.30;102147.00;;;;4945953;28;20214;-78
2023/10/01 08:13:04;;;;;;;9.98;4.57;;;20.70;61.30;22.40;102141.00;;;;4945272;28;20238;-78
2023/10/01 08:15:38;;;;;;;6.07;3.40;;;20.80;61.40;22.50;102146.00;;;;4946369;28;20242;-78
2023/10/01 08:18:34;;;;;;;8.85;3.90;;;20.90;61.50;22.60;102148.00;;;;4945706;28;20242;-78
2023/10/01 08:21:02;;;;;;;8.63;4.10;;;20.90;61.60;22.70;102140.00;;;;4947873;28;20199;-78
2023/10/01 08:23:33;;;;;;;8.85;4.70;;;21.00;61.70;22.70;102137.00;;;;4947565;28;20199;-78
2023/10/01 08:26:39;;;;;;;10.38;3.90;;;21.10;61.60;22.80;102138.00;;;;4947255;28;20257;-78
2023/10/01 08:28:56;;;;;;;7.60;3.97;;;21.10;61.60;22.90;102144.00;;;;4945768;28;20250;-78
2023/10/01 08:34:24;;;;;;;9.32;4.32;;;21.30;61.60;23.10;102150.00;;;;4944931;28;20226;-78
2023/10/01 08:36:55;;;;;;;7.78;4.20;;;21.40;61.40;23.10;102151.00;;;;4948407;28;20550;-78
2023/10/01 08:39:35;;;;;;;13.35;5.43;;;21.50;61.30;23.20;102147.00;;;;4935952;28;20223;-78
2023/10/01 08:42:08;;;;;;;7.07;4.47;;;21.50;61.80;23.20;102150.00;;;;4947418;28;20211;-77
2023/10/01 08:44:47;;;;;;;8.52;4.78;;;21.60;61.20;23.20;102151.00;;;;4946649;28;20249;-77
2023/10/01 08:47:31;;;;;;;8.43;4.05;;;21.70;61.20;23.30;102157.00;;;;4946923;28;20210;-77
2023/10/01 08:50:28;;;;;;;8.90;4.13;;;21.70;61.10;23.40;102159.00;;;;4947148;28;20195;-77
2023/10/01 08:52:56;;;;;;;10.13;5.00;;;21.80;61.70;23.50;102157.00;;;;4947468;28;20199;-77
2023/10/01 08:55:35;;;;;;;9.15;4.47;;;21.90;60.90;23.50;102151.00;;;;4950318;28;20797;-77
2023/10/01 08:58:15;;;;;;;8.75;3.92;;;21.90;60.90;23.60;102151.00;;;;4948073;28;20246;-77
2023/10/01 09:00:48;;;;;;;10.73;4.35;;;22.00;60.90;23.70;102153.00;;;;4942479;28;20676;-78
2023/10/01 09:03:26;;;;;;;10.98;4.80;;;22.10;61.00;23.70;102158.00;;;;4945644;28;20669;-78
2023/10/01 09:06:03;;;;;;;9.95;4.60;;;22.20;60.90;23.80;102151.00;;;;4941234;28;20202;-77
2023/10/01 09:08:31;;;;;;;12.75;5.03;;;22.20;61.60;23.90;102150.00;;;;4943478;29;20198;-78
2023/10/01 09:11:00;;;;;;;10.15;5.00;;;22.30;60.90;24.00;102151.00;;;;4949930;28;20200;-77
2023/10/01 09:13:30;;;;;;;8.85;4.95;;;22.40;60.90;24.10;102156.00;;;;4945662;28;20203;-77
2023/10/01 09:16:11;;;;;;;9.80;4.93;;;22.40;60.90;24.10;102159.00;;;;4943281;28;20739;-78
2023/10/01 09:19:03;;;;;;;6.57;4.00;;;22.50;60.60;24.10;102153.00;;;;4947197;28;20210;-78
2023/10/01 09:21:38;;;;;;;8.45;3.72;;;22.60;60.80;24.40;102153.00;;;;4942917;29;20206;-78
2023/10/01 09:24:31;;;;;;;11.30;5.25;;;22.70;60.90;24.50;102154.00;;;;4946453;28;20206;-77
2023/10/01 09:27:09;;;;;;;8.10;4.65;;;22.80;60.90;24.50;102149.00;;;;4945504;28;20219;-78
2023/10/01 09:29:43;;;;;;;8.82;4.30;;;22.90;60.60;24.60;102154.00;;;;4971044;28;20213;-78
2023/10/01 09:32:13;;;;;;;9.70;4.32;;;23.00;60.60;24.70;102146.00;;;;4945890;28;20210;-78
2023/10/01 09:34:47;;;;;;;8.85;4.72;;;23.10;60.50;24.80;102151.00;;;;4946995;29;20657;-78
2023/10/01 09:37:33;;;;;;;7.07;4.53;;;23.20;60.50;24.90;102138.00;;;;4946241;28;20700;-78
2023/10/01 09:40:05;;;;;;;6.55;4.25;;;23.30;60.40;25.00;102148.00;;;;4947468;28;20296;-78
2023/10/01 09:42:44;;;;;;;14.70;4.82;;;23.40;60.20;25.00;102151.00;;;;4946602;28;20733;-78
2023/10/01 09:45:26;;;;;;;9.65;4.43;;;23.40;60.00;25.10;102150.00;;;;4951567;28;20207;-78
2023/10/01 09:48:04;;;;;;;9.23;4.45;;;23.50;60.10;25.10;102155.00;;;;4949260;28;20191;-78
2023/10/01 09:50:41;;;;;;;12.82;4.07;;;23.60;60.10;25.20;102156.00;;;;4948775;28;20203;-78
2023/10/01 09:53:13;;;;;;;10.35;4.80;;;23.70;60.00;25.30;102149.00;;;;4945317;28;20289;-79
2023/10/01 09:55:55;;;;;;;7.55;3.92;;;23.70;59.90;25.30;102156.00;;;;4939160;28;20227;-79
2023/10/01 09:58:25;;;;;;;9.50;4.03;;;23.80;59.80;25.40;102148.00;;;;4938822;28;20282;-80
2023/10/01 10:00:54;;;;;;;10.32;4.40;;;23.90;59.70;25.50;102154.00;;;;4947903;28;20249;-79
2023/10/01 10:03:21;;;;;;;10.73;4.20;;;23.90;59.70;25.60;102150.00;;;;4953751;28;20227;-79
2023/10/01 10:05:49;;;;;;;10.32;4.72;;;24.00;59.70;25.60;102152.00;;;;4949189;28;20264;-79
2023/10/01 10:08:20;;;;;;;8.68;4.47;;;24.10;59.60;25.70;102145.00;;;;4943883;28;20749;-78
2023/10/01 10:10:50;;;;;;;10.05;5.32;;;24.20;59.70;25.80;102154.00;;;;4948759;28;20230;-78
2023/10/01 10:13:38;;;;;;;7.68;4.55;;;24.20;59.60;25.80;102160.00;;;;4948953;28;20207;-78
2023/10/01 10:19:09;;;;;;;6.97;4.10;;;24.40;59.40;25.90;102141.00;;;;4955902;28;20582;-78
2023/10/01 10:22:11;;;;;;;8.05;4.07;;;24.50;59.10;25.90;102131.00;;;;4948241;28;20249;-78
2023/10/01 10:24:45;;;;;;;9.13;4.30;;;24.60;58.70;26.10;102130.00;;;;4949103;28;20210;-78
2023/10/01 10:27:34;;;;;;;12.98;4.75;;;24.70;59.00;26.20;102133.00;;;;4949735;28;20332;-78
2023/10/01 10:30:16;;;;;;;10.52;4.35;;;24.70;58.90;26.20;102131.00;;;;4948140;28;20210;-78
2023/10/01 10:33:41;;;;;;;8.02;5.07;;;24.80;58.40;26.30;102126.00;;;;4949504;28;20207;-79
2023/10/01 10:36:54;;;;;;;8.45;4.55;;;24.90;58.30;26.40;102129.00;;;;4957291;28;20751;-79
2023/10/01 10:40:22;;;;;;;10.07;5.20;;;25.00;58.60;26.50;102126.00;;;;4945886;28;20300;-79
2023/10/01 10:43:19;;;;;;;10.07;5.20;;;25.10;58.20;26.60;102134.00;;;;4947088;28;20689;-79
2023/10/01 10:46:05;;;;;;;9.05;4.95;;;25.20;58.20;26.70;102128.00;;;;4947979;28;20203;-78
2023/10/01 10:49:00;;;;;;;7.07;4.22;;;25.40;58.00;26.80;102119.00;;;;4947854;28;20638;-78
2023/10/01 10:51:46;;;;;;;10.15;4.03;;;25.50;57.90;26.90;102115.00;;;;4941974;28;20210;-79
2023/10/01 10:54:27;;;;;;;10.77;4.88;;;25.60;58.00;27.10;102113.00;;;;4973735;28;20755;-79
2023/10/01 10:56:55;;;;;;;10.55;5.03;;;25.70;58.30;27.10;102117.00;;;;4947843;29;20223;-79
2023/10/01 10:59:25;;;;;;;8.32;4.63;;;25.70;57.90;27.20;102110.00;;;;4947644;28;20206;-79
2023/10/01 11:01:56;;;;;;;8.43;4.78;;;25.80;58.10;27.30;102118.00;;;;4947345;29;20199;-79
2023/10/01 11:04:30;;;;;;;7.82;4.55;;;25.90;58.00;27.40;102110.00;;;;4938978;28;20571;-79
2023/10/01 11:07:04;;;;;;;10.90;5.15;;;26.00;57.70;27.60;102099.00;;;;4944053;28;20207;-79
2023/10/01 11:09:33;;;;;;;9.50;4.90;;;26.10;57.70;27.60;102106.00;;;;4948005;28;20187;-78
2023/10/01 11:12:19;;;;;;;9.77;4.95;;;26.20;57.50;27.60;102111.00;;;;4974483;28;20276;-78
2023/10/01 11:14:56;;;;;;;10.07;5.43;;;26.30;57.20;27.70;102117.00;;;;4947904;29;20286;-78
2023/10/01 11:17:24;;;;;;;11.05;4.60;;;26.40;56.90;27.80;102113.00;;;;4948805;29;20245;-79
2023/10/01 11:19:58;;;;;;;9.82;4.80;;;26.50;57.20;27.90;102106.00;;;;4948193;28;20199;-78
2023/10/01 11:22:26;;;;;;;14.23;5.47;;;26.50;57.10;28.00;102106.00;;;;4947601;28;20625;-79
2023/10/01 11:24:54;;;;;;;12.32;6.25;;;26.60;57.60;28.00;102111.00;;;;4947278;28;20676;-79
2023/10/01 11:27:25;;;;;;;15.60;6.32;;;26.70;57.00;28.10;102106.00;;;;4951633;28;20219;-78